sensor_id;sensor_type;location;lat;lon;timestamp;P1;durP1;ratioP1;P2;durP2;ratioP2
39222;SDS011;24936;46.328;11.026;2023-12-29T00:02:21;6.47;;;5.47;;
39222;SDS011;24936;46.328;11.026;2023-12-29T00:04:47;10.02;;;4.65;;
39222;SDS011;24936;46.328;11.026;2023-12-29T00:07:12;8.07;;;5.03;;
39222;SDS011;24936;46.328;11.026;2023-12-29T00:09:38;7.47;;;5.68;;
39222;SDS011;24936;46.328;11.026;2023-12-29T00:12:06;6.53;;;5.57;;
39222;SDS011;24936;46.328;11.026;2023-12-29T00:14:32;7.10;;;4.18;;
39222;SDS011;24936;46.328;11.026;2023-12-29T00:16:58;7.75;;;5.78;;
39222;SDS011;24936;46.328;11.026;2023-12-29T00:19:24;6.10;;;4.53;;
39222;SDS011;24936;46.328;11.026;2023-12-29T00:21:50;6.20;;;5.03;;
39222;SDS011;24936;46.328;11.026;2023-12-29T00:24:15;7.63;;;5.00;;
39222;SDS011;24936;46.328;11.026;2023-12-29T00:26:42;12.93;;;4.85;;
39222;SDS011;24936;46.328;11.026;2023-12-29T00:29:07;5.68;;;3.58;;
39222;SDS011;24936;46.328;11.026;2023-12-29T00:31:33;6.47;;;4.13;;
39222;SDS011;24936;46.328;11.026;2023-12-29T00:33:58;5.50;;;4.25;;
39222;SDS011;24936;46.328;11.026;2023-12-29T00:36:24;4.75;;;3.92;;
39222;SDS011;24936;46.328;11.026;2023-12-29T00:38:49;8.25;;;4.45;;
39222;SDS011;24936;46.328;11.026;2023-12-29T00:41:15;4.70;;;4.15;;
39222;SDS011;24936;46.328;11.026;2023-12-29T00:43:40;4.85;;;4.35;;
39222;SDS011;24936;46.328;11.026;2023-12-29T00:46:06;7.13;;;4.72;;
39222;SDS011;24936;46.328;11.026;2023-12-29T00:48:33;7.50;;;5.00;;
39222;SDS011;24936;46.328;11.026;2023-12-29T00:51:02;4.60;;;3.78;;
39222;SDS011;24936;46.328;11.026;2023-12-29T00:53:28;3.40;;;3.10;;
39222;SDS011;24936;46.328;11.026;2023-12-29T00:55:59;5.72;;;3.75;;
39222;SDS011;24936;46.328;11.026;2023-12-29T00:58:24;4.05;;;3.70;;
39222;SDS011;24936;46.328;11.026;2023-12-29T01:00:50;7.20;;;3.90;;
39222;SDS011;24936;46.328;11.026;2023-12-29T01:03:15;5.07;;;4.10;;
39222;SDS011;24936;46.328;11.026;2023-12-29T01:05:41;6.57;;;4.50;;
39222;SDS011;24936;46.328;11.026;2023-12-29T01:08:06;7.13;;;4.18;;
39222;SDS011;24936;46.328;11.026;2023-12-29T01:10:32;5.10;;;4.60;;
39222;SDS011;24936;46.328;11.026;2023-12-29T01:12:57;5.20;;;4.05;;
39222;SDS011;24936;46.328;11.026;2023-12-29T01:15:23;8.25;;;3.63;;
39222;SDS011;24936;46.328;11.026;2023-12-29T01:17:48;6.75;;;4.25;;
39222;SDS011;24936;46.328;11.026;2023-12-29T01:20:14;4.45;;;4.05;;
39222;SDS011;24936;46.328;11.026;2023-12-29T01:22:39;6.80;;;4.95;;
39222;SDS011;24936;46.328;11.026;2023-12-29T01:25:05;5.07;;;4.38;;
39222;SDS011;24936;46.328;11.026;2023-12-29T01:27:31;5.40;;;3.55;;
39222;SDS011;24936;46.328;11.026;2023-12-29T01:29:56;3.42;;;3.17;;
39222;SDS011;24936;46.328;11.026;2023-12-29T01:32:22;5.05;;;4.15;;
39222;SDS011;24936;46.328;11.026;2023-12-29T01:34:47;4.45;;;4.03;;
39222;SDS011;24936;46.328;11.026;2023-12-29T01:37:13;5.13;;;4.32;;
39222;SDS011;24936;46.328;11.026;2023-12-29T01:39:38;5.63;;;4.30;;
39222;SDS011;24936;46.328;11.026;2023-12-29T01:42:05;5.45;;;3.70;;
39222;SDS011;24936;46.328;11.026;2023-12-29T01:44:31;7.72;;;4.40;;
39222;SDS011;24936;46.328;11.026;2023-12-29T01:46:59;5.78;;;3.30;;
39222;SDS011;24936;46.328;11.026;2023-12-29T01:49:26;9.07;;;5.45;;
39222;SDS011;24936;46.328;11.026;2023-12-29T01:51:56;6.57;;;3.67;;
39222;SDS011;24936;46.328;11.026;2023-12-29T01:54:23;6.07;;;3.60;;
39222;SDS011;24936;46.328;11.026;2023-12-29T01:56:50;6.70;;;3.97;;
39222;SDS011;24936;46.328;11.026;2023-12-29T01:59:20;5.68;;;3.53;;
39222;SDS011;24936;46.328;11.026;2023-12-29T02:01:46;3.97;;;3.22;;
39222;SDS011;24936;46.328;11.026;2023-12-29T02:04:12;4.53;;;3.28;;
39222;SDS011;24936;46.328;11.026;2023-12-29T02:06:38;3.40;;;2.67;;
39222;SDS011;24936;46.328;11.026;2023-12-29T02:09:05;3.60;;;2.53;;
39222;SDS011;24936;46.328;11.026;2023-12-29T02:11:31;3.90;;;2.95;;
39222;SDS011;24936;46.328;11.026;2023-12-29T02:13:58;4.38;;;3.45;;
39222;SDS011;24936;46.328;11.026;2023-12-29T02:16:30;4.22;;;3.83;;
39222;SDS011;24936;46.328;11.026;2023-12-29T02:19:04;3.80;;;2.92;;
39222;SDS011;24936;46.328;11.026;2023-12-29T02:21:42;3.88;;;3.13;;
39222;SDS011;24936;46.328;11.026;2023-12-29T02:24:08;2.42;;;1.70;;
39222;SDS011;24936;46.328;11.026;2023-12-29T02:26:33;5.28;;;3.38;;
39222;SDS011;24936;46.328;11.026;2023-12-29T02:29:02;3.85;;;2.83;;
39222;SDS011;24936;46.328;11.026;2023-12-29T02:31:31;2.65;;;2.42;;
39222;SDS011;24936;46.328;11.026;2023-12-29T02:34:02;3.35;;;2.92;;
39222;SDS011;24936;46.328;11.026;2023-12-29T02:36:31;5.25;;;3.58;;
39222;SDS011;24936;46.328;11.026;2023-12-29T02:38:58;4.75;;;3.47;;
39222;SDS011;24936;46.328;11.026;2023-12-29T02:41:23;3.92;;;3.38;;
39222;SDS011;24936;46.328;11.026;2023-12-29T02:43:49;3.10;;;2.80;;
39222;SDS011;24936;46.328;11.026;2023-12-29T02:46:15;3.53;;;3.22;;
39222;SDS011;24936;46.328;11.026;2023-12-29T02:48:41;7.95;;;3.05;;
39222;SDS011;24936;46.328;11.026;2023-12-29T02:51:07;2.88;;;2.17;;
39222;SDS011;24936;46.328;11.026;2023-12-29T02:53:33;2.78;;;1.92;;
39222;SDS011;24936;46.328;11.026;2023-12-29T02:55:59;4.88;;;2.53;;
39222;SDS011;24936;46.328;11.026;2023-12-29T02:58:24;2.58;;;1.73;;
39222;SDS011;24936;46.328;11.026;2023-12-29T03:00:49;10.05;;;3.00;;
39222;SDS011;24936;46.328;11.026;2023-12-29T03:03:15;2.17;;;1.83;;
39222;SDS011;24936;46.328;11.026;2023-12-29T03:05:40;8.00;;;3.08;;
39222;SDS011;24936;46.328;11.026;2023-12-29T03:08:06;3.15;;;2.80;;
39222;SDS011;24936;46.328;11.026;2023-12-29T03:10:31;4.07;;;2.90;;
39222;SDS011;24936;46.328;11.026;2023-12-29T03:12:57;7.20;;;2.90;;
39222;SDS011;24936;46.328;11.026;2023-12-29T03:15:22;2.30;;;2.13;;
39222;SDS011;24936;46.328;11.026;2023-12-29T03:17:47;3.53;;;2.80;;
39222;SDS011;24936;46.328;11.026;2023-12-29T03:20:13;8.02;;;2.42;;
39222;SDS011;24936;46.328;11.026;2023-12-29T03:22:38;3.00;;;2.67;;
39222;SDS011;24936;46.328;11.026;2023-12-29T03:25:04;3.72;;;1.98;;
39222;SDS011;24936;46.328;11.026;2023-12-29T03:27:33;2.80;;;2.38;;
39222;SDS011;24936;46.328;11.026;2023-12-29T03:29:58;1.75;;;1.65;;
39222;SDS011;24936;46.328;11.026;2023-12-29T03:32:24;2.25;;;2.05;;
39222;SDS011;24936;46.328;11.026;2023-12-29T03:34:49;7.05;;;1.90;;
39222;SDS011;24936;46.328;11.026;2023-12-29T03:37:14;2.35;;;2.15;;
39222;SDS011;24936;46.328;11.026;2023-12-29T03:39:40;4.15;;;2.85;;
39222;SDS011;24936;46.328;11.026;2023-12-29T03:42:06;2.17;;;2.05;;
39222;SDS011;24936;46.328;11.026;2023-12-29T03:44:31;3.50;;;3.17;;
39222;SDS011;24936;46.328;11.026;2023-12-29T03:46:57;2.75;;;2.53;;
39222;SDS011;24936;46.328;11.026;2023-12-29T03:49:22;3.85;;;2.70;;
39222;SDS011;24936;46.328;11.026;2023-12-29T03:51:48;2.28;;;2.03;;
39222;SDS011;24936;46.328;11.026;2023-12-29T03:54:16;4.40;;;2.97;;
39222;SDS011;24936;46.328;11.026;2023-12-29T03:56:43;3.20;;;2.90;;
39222;SDS011;24936;46.328;11.026;2023-12-29T03:59:08;2.78;;;2.38;;
39222;SDS011;24936;46.328;11.026;2023-12-29T04:01:34;3.17;;;2.72;;
39222;SDS011;24936;46.328;11.026;2023-12-29T04:04:00;4.10;;;2.80;;
39222;SDS011;24936;46.328;11.026;2023-12-29T04:06:25;2.97;;;2.50;;
39222;SDS011;24936;46.328;11.026;2023-12-29T04:08:51;3.85;;;3.20;;
39222;SDS011;24936;46.328;11.026;2023-12-29T04:11:16;2.80;;;2.38;;
39222;SDS011;24936;46.328;11.026;2023-12-29T04:13:41;5.43;;;2.92;;
39222;SDS011;24936;46.328;11.026;2023-12-29T04:16:07;2.20;;;2.05;;
39222;SDS011;24936;46.328;11.026;2023-12-29T04:18:32;2.10;;;1.95;;
39222;SDS011;24936;46.328;11.026;2023-12-29T04:20:58;3.55;;;2.85;;
39222;SDS011;24936;46.328;11.026;2023-12-29T04:23:23;3.42;;;2.58;;
39222;SDS011;24936;46.328;11.026;2023-12-29T04:25:49;2.67;;;2.47;;
39222;SDS011;24936;46.328;11.026;2023-12-29T04:28:14;4.63;;;2.55;;
39222;SDS011;24936;46.328;11.026;2023-12-29T04:30:40;3.85;;;3.00;;
39222;SDS011;24936;46.328;11.026;2023-12-29T04:33:05;3.15;;;2.80;;
39222;SDS011;24936;46.328;11.026;2023-12-29T04:35:30;3.47;;;2.40;;
39222;SDS011;24936;46.328;11.026;2023-12-29T04:37:56;3.00;;;2.55;;
39222;SDS011;24936;46.328;11.026;2023-12-29T04:40:21;2.42;;;2.22;;
39222;SDS011;24936;46.328;11.026;2023-12-29T04:42:47;3.60;;;2.17;;
39222;SDS011;24936;46.328;11.026;2023-12-29T04:45:12;1.92;;;1.58;;
39222;SDS011;24936;46.328;11.026;2023-12-29T04:47:38;3.15;;;2.72;;
39222;SDS011;24936;46.328;11.026;2023-12-29T04:50:04;2.92;;;2.50;;
39222;SDS011;24936;46.328;11.026;2023-12-29T04:52:33;2.60;;;1.80;;
39222;SDS011;24936;46.328;11.026;2023-12-29T04:54:59;2.72;;;2.53;;
39222;SDS011;24936;46.328;11.026;2023-12-29T04:57:24;2.75;;;2.20;;
39222;SDS011;24936;46.328;11.026;2023-12-29T04:59:50;5.40;;;2.58;;
39222;SDS011;24936;46.328;11.026;2023-12-29T05:02:15;2.95;;;2.67;;
39222;SDS011;24936;46.328;11.026;2023-12-29T05:04:41;3.92;;;2.80;;
39222;SDS011;24936;46.328;11.026;2023-12-29T05:07:08;3.90;;;2.47;;
39222;SDS011;24936;46.328;11.026;2023-12-29T05:09:34;6.60;;;2.88;;
39222;SDS011;24936;46.328;11.026;2023-12-29T05:11:59;3.20;;;2.72;;
39222;SDS011;24936;46.328;11.026;2023-12-29T05:14:25;4.22;;;3.05;;
39222;SDS011;24936;46.328;11.026;2023-12-29T05:16:50;4.97;;;2.78;;
39222;SDS011;24936;46.328;11.026;2023-12-29T05:19:16;3.30;;;3.00;;
39222;SDS011;24936;46.328;11.026;2023-12-29T05:21:41;3.10;;;2.75;;
39222;SDS011;24936;46.328;11.026;2023-12-29T05:24:07;3.05;;;2.83;;
39222;SDS011;24936;46.328;11.026;2023-12-29T05:26:33;6.78;;;3.90;;
39222;SDS011;24936;46.328;11.026;2023-12-29T05:28:58;4.38;;;3.63;;
39222;SDS011;24936;46.328;11.026;2023-12-29T05:31:24;3.97;;;3.20;;
39222;SDS011;24936;46.328;11.026;2023-12-29T05:33:50;3.40;;;3.00;;
39222;SDS011;24936;46.328;11.026;2023-12-29T05:36:16;6.97;;;3.13;;
39222;SDS011;24936;46.328;11.026;2023-12-29T05:38:42;2.72;;;2.45;;
39222;SDS011;24936;46.328;11.026;2023-12-29T05:41:11;4.17;;;2.40;;
39222;SDS011;24936;46.328;11.026;2023-12-29T05:43:38;3.65;;;1.90;;
39222;SDS011;24936;46.328;11.026;2023-12-29T05:46:08;2.95;;;1.80;;
39222;SDS011;24936;46.328;11.026;2023-12-29T05:48:35;2.50;;;2.28;;
39222;SDS011;24936;46.328;11.026;2023-12-29T05:51:05;3.45;;;2.92;;
39222;SDS011;24936;46.328;11.026;2023-12-29T05:53:32;3.20;;;2.83;;
39222;SDS011;24936;46.328;11.026;2023-12-29T05:55:58;2.33;;;2.13;;
39222;SDS011;24936;46.328;11.026;2023-12-29T05:58:23;3.30;;;2.45;;
39222;SDS011;24936;46.328;11.026;2023-12-29T06:00:49;4.40;;;2.92;;
39222;SDS011;24936;46.328;11.026;2023-12-29T06:03:14;6.28;;;3.00;;
39222;SDS011;24936;46.328;11.026;2023-12-29T06:05:40;2.97;;;2.67;;
39222;SDS011;24936;46.328;11.026;2023-12-29T06:08:05;3.28;;;3.00;;
39222;SDS011;24936;46.328;11.026;2023-12-29T06:10:31;3.88;;;2.70;;
39222;SDS011;24936;46.328;11.026;2023-12-29T06:12:57;7.03;;;3.28;;
39222;SDS011;24936;46.328;11.026;2023-12-29T06:15:22;3.25;;;2.95;;
39222;SDS011;24936;46.328;11.026;2023-12-29T06:17:48;4.68;;;3.38;;
39222;SDS011;24936;46.328;11.026;2023-12-29T06:20:13;5.40;;;3.65;;
39222;SDS011;24936;46.328;11.026;2023-12-29T06:22:39;4.05;;;3.53;;
39222;SDS011;24936;46.328;11.026;2023-12-29T06:25:12;2.72;;;2.33;;
39222;SDS011;24936;46.328;11.026;2023-12-29T06:27:38;2.43;;;2.20;;
39222;SDS011;24936;46.328;11.026;2023-12-29T06:30:05;3.80;;;2.97;;
39222;SDS011;24936;46.328;11.026;2023-12-29T06:32:32;6.53;;;3.88;;
39222;SDS011;24936;46.328;11.026;2023-12-29T06:34:57;3.97;;;2.63;;
39222;SDS011;24936;46.328;11.026;2023-12-29T06:37:24;4.30;;;3.45;;
39222;SDS011;24936;46.328;11.026;2023-12-29T06:39:50;5.07;;;3.85;;
39222;SDS011;24936;46.328;11.026;2023-12-29T06:42:15;4.90;;;3.80;;
39222;SDS011;24936;46.328;11.026;2023-12-29T06:44:41;3.72;;;3.42;;
39222;SDS011;24936;46.328;11.026;2023-12-29T06:47:06;4.15;;;3.55;;
39222;SDS011;24936;46.328;11.026;2023-12-29T06:49:34;4.57;;;4.18;;
39222;SDS011;24936;46.328;11.026;2023-12-29T06:52:00;5.05;;;3.65;;
39222;SDS011;24936;46.328;11.026;2023-12-29T06:54:26;4.18;;;3.55;;
39222;SDS011;24936;46.328;11.026;2023-12-29T06:56:51;4.68;;;3.63;;
39222;SDS011;24936;46.328;11.026;2023-12-29T06:59:17;4.45;;;3.10;;
39222;SDS011;24936;46.328;11.026;2023-12-29T07:01:44;3.78;;;2.08;;
39222;SDS011;24936;46.328;11.026;2023-12-29T07:04:10;2.78;;;2.58;;
39222;SDS011;24936;46.328;11.026;2023-12-29T07:06:36;3.50;;;3.22;;
39222;SDS011;24936;46.328;11.026;2023-12-29T07:09:02;3.72;;;3.30;;
39222;SDS011;24936;46.328;11.026;2023-12-29T07:11:28;8.18;;;4.40;;
39222;SDS011;24936;46.328;11.026;2023-12-29T07:13:54;6.82;;;3.83;;
39222;SDS011;24936;46.328;11.026;2023-12-29T07:16:19;10.90;;;6.50;;
39222;SDS011;24936;46.328;11.026;2023-12-29T07:18:45;11.68;;;7.05;;
39222;SDS011;24936;46.328;11.026;2023-12-29T07:21:11;6.60;;;4.47;;
39222;SDS011;24936;46.328;11.026;2023-12-29T07:23:37;8.18;;;4.43;;
39222;SDS011;24936;46.328;11.026;2023-12-29T07:26:03;8.93;;;4.57;;
39222;SDS011;24936;46.328;11.026;2023-12-29T07:28:29;4.85;;;2.97;;
39222;SDS011;24936;46.328;11.026;2023-12-29T07:30:56;3.47;;;3.00;;
39222;SDS011;24936;46.328;11.026;2023-12-29T07:33:22;3.30;;;2.70;;
39222;SDS011;24936;46.328;11.026;2023-12-29T07:35:49;2.97;;;2.50;;
39222;SDS011;24936;46.328;11.026;2023-12-29T07:38:14;3.83;;;3.45;;
39222;SDS011;24936;46.328;11.026;2023-12-29T07:40:40;4.07;;;3.00;;
39222;SDS011;24936;46.328;11.026;2023-12-29T07:43:05;3.90;;;3.22;;
39222;SDS011;24936;46.328;11.026;2023-12-29T07:45:31;3.30;;;3.00;;
39222;SDS011;24936;46.328;11.026;2023-12-29T07:47:56;4.75;;;4.30;;
39222;SDS011;24936;46.328;11.026;2023-12-29T07:50:22;7.72;;;3.65;;
39222;SDS011;24936;46.328;11.026;2023-12-29T07:52:47;5.80;;;4.72;;
39222;SDS011;24936;46.328;11.026;2023-12-29T07:55:13;5.65;;;4.32;;
39222;SDS011;24936;46.328;11.026;2023-12-29T07:57:41;5.25;;;4.18;;
39222;SDS011;24936;46.328;11.026;2023-12-29T08:00:08;7.68;;;6.25;;
39222;SDS011;24936;46.328;11.026;2023-12-29T08:02:34;13.70;;;7.88;;
39222;SDS011;24936;46.328;11.026;2023-12-29T08:05:00;5.95;;;4.82;;
39222;SDS011;24936;46.328;11.026;2023-12-29T08:07:26;4.18;;;3.65;;
39222;SDS011;24936;46.328;11.026;2023-12-29T08:09:51;8.68;;;5.95;;
39222;SDS011;24936;46.328;11.026;2023-12-29T08:12:17;13.77;;;6.50;;
39222;SDS011;24936;46.328;11.026;2023-12-29T08:14:42;5.43;;;4.57;;
39222;SDS011;24936;46.328;11.026;2023-12-29T08:17:07;5.05;;;4.55;;
39222;SDS011;24936;46.328;11.026;2023-12-29T08:19:34;10.25;;;6.38;;
39222;SDS011;24936;46.328;11.026;2023-12-29T08:21:59;5.30;;;4.10;;
39222;SDS011;24936;46.328;11.026;2023-12-29T08:24:25;7.93;;;6.43;;
39222;SDS011;24936;46.328;11.026;2023-12-29T08:26:50;17.23;;;8.48;;
39222;SDS011;24936;46.328;11.026;2023-12-29T08:29:16;11.68;;;7.57;;
39222;SDS011;24936;46.328;11.026;2023-12-29T08:31:42;10.65;;;6.53;;
39222;SDS011;24936;46.328;11.026;2023-12-29T08:34:08;16.13;;;6.90;;
39222;SDS011;24936;46.328;11.026;2023-12-29T08:36:33;11.27;;;6.90;;
39222;SDS011;24936;46.328;11.026;2023-12-29T08:38:59;15.95;;;9.82;;
39222;SDS011;24936;46.328;11.026;2023-12-29T08:41:25;12.35;;;8.48;;
39222;SDS011;24936;46.328;11.026;2023-12-29T08:43:50;11.25;;;8.50;;
39222;SDS011;24936;46.328;11.026;2023-12-29T08:46:16;13.93;;;8.45;;
39222;SDS011;24936;46.328;11.026;2023-12-29T08:48:41;9.60;;;7.03;;
39222;SDS011;24936;46.328;11.026;2023-12-29T08:51:07;10.95;;;7.10;;
39222;SDS011;24936;46.328;11.026;2023-12-29T08:53:32;16.65;;;10.25;;
39222;SDS011;24936;46.328;11.026;2023-12-29T08:56:01;15.27;;;9.82;;
39222;SDS011;24936;46.328;11.026;2023-12-29T08:58:26;14.38;;;9.23;;
39222;SDS011;24936;46.328;11.026;2023-12-29T09:00:52;13.05;;;9.30;;
39222;SDS011;24936;46.328;11.026;2023-12-29T09:03:17;11.00;;;8.98;;
39222;SDS011;24936;46.328;11.026;2023-12-29T09:05:43;8.98;;;7.35;;
39222;SDS011;24936;46.328;11.026;2023-12-29T09:08:08;14.35;;;6.65;;
39222;SDS011;24936;46.328;11.026;2023-12-29T09:10:34;6.43;;;5.07;;
39222;SDS011;24936;46.328;11.026;2023-12-29T09:12:59;8.38;;;5.78;;
39222;SDS011;24936;46.328;11.026;2023-12-29T09:15:24;4.65;;;4.10;;
39222;SDS011;24936;46.328;11.026;2023-12-29T09:17:50;5.25;;;4.07;;
39222;SDS011;24936;46.328;11.026;2023-12-29T09:20:16;5.47;;;4.60;;
39222;SDS011;24936;46.328;11.026;2023-12-29T09:22:41;6.47;;;3.85;;
39222;SDS011;24936;46.328;11.026;2023-12-29T09:25:07;4.63;;;4.00;;
39222;SDS011;24936;46.328;11.026;2023-12-29T09:27:32;4.47;;;3.45;;
39222;SDS011;24936;46.328;11.026;2023-12-29T09:29:58;5.60;;;2.80;;
39222;SDS011;24936;46.328;11.026;2023-12-29T09:32:23;4.68;;;3.45;;
39222;SDS011;24936;46.328;11.026;2023-12-29T09:34:49;4.63;;;2.97;;
39222;SDS011;24936;46.328;11.026;2023-12-29T09:37:14;6.70;;;3.55;;
39222;SDS011;24936;46.328;11.026;2023-12-29T09:39:40;5.30;;;3.83;;
39222;SDS011;24936;46.328;11.026;2023-12-29T09:42:06;5.20;;;3.72;;
39222;SDS011;24936;46.328;11.026;2023-12-29T09:44:34;5.57;;;4.45;;
39222;SDS011;24936;46.328;11.026;2023-12-29T09:47:02;4.47;;;3.58;;
39222;SDS011;24936;46.328;11.026;2023-12-29T09:49:35;5.63;;;4.68;;
39222;SDS011;24936;46.328;11.026;2023-12-29T09:52:09;3.25;;;2.85;;
39222;SDS011;24936;46.328;11.026;2023-12-29T09:57:02;3.28;;;2.92;;
39222;SDS011;24936;46.328;11.026;2023-12-29T09:59:30;3.83;;;3.28;;
39222;SDS011;24936;46.328;11.026;2023-12-29T10:02:01;4.95;;;3.08;;
39222;SDS011;24936;46.328;11.026;2023-12-29T10:04:28;17.42;;;8.85;;
39222;SDS011;24936;46.328;11.026;2023-12-29T10:06:54;5.88;;;3.40;;
39222;SDS011;24936;46.328;11.026;2023-12-29T10:09:22;3.90;;;3.40;;
39222;SDS011;24936;46.328;11.026;2023-12-29T10:11:50;5.97;;;4.57;;
39222;SDS011;24936;46.328;11.026;2023-12-29T10:14:23;4.47;;;3.25;;
39222;SDS011;24936;46.328;11.026;2023-12-29T10:16:53;4.65;;;2.70;;
39222;SDS011;24936;46.328;11.026;2023-12-29T10:19:39;6.60;;;5.95;;
39222;SDS011;24936;46.328;11.026;2023-12-29T10:22:08;7.70;;;6.65;;
39222;SDS011;24936;46.328;11.026;2023-12-29T10:24:57;8.38;;;6.47;;
39222;SDS011;24936;46.328;11.026;2023-12-29T10:27:22;8.25;;;6.15;;
39222;SDS011;24936;46.328;11.026;2023-12-29T10:29:48;6.43;;;5.10;;
39222;SDS011;24936;46.328;11.026;2023-12-29T10:32:13;8.82;;;4.70;;
39222;SDS011;24936;46.328;11.026;2023-12-29T10:34:39;6.13;;;4.13;;
39222;SDS011;24936;46.328;11.026;2023-12-29T10:37:04;8.68;;;4.80;;
39222;SDS011;24936;46.328;11.026;2023-12-29T10:39:38;6.20;;;5.13;;
39222;SDS011;24936;46.328;11.026;2023-12-29T10:44:36;10.50;;;5.95;;
39222;SDS011;24936;46.328;11.026;2023-12-29T10:47:08;7.27;;;5.63;;
39222;SDS011;24936;46.328;11.026;2023-12-29T10:49:35;9.45;;;5.80;;
39222;SDS011;24936;46.328;11.026;2023-12-29T10:52:10;8.45;;;5.20;;
39222;SDS011;24936;46.328;11.026;2023-12-29T10:54:40;6.10;;;5.50;;
39222;SDS011;24936;46.328;11.026;2023-12-29T10:57:05;7.38;;;5.53;;
39222;SDS011;24936;46.328;11.026;2023-12-29T10:59:32;7.55;;;5.25;;
39222;SDS011;24936;46.328;11.026;2023-12-29T11:02:00;6.72;;;5.15;;
39222;SDS011;24936;46.328;11.026;2023-12-29T11:04:27;8.32;;;6.15;;
39222;SDS011;24936;46.328;11.026;2023-12-29T11:06:53;5.72;;;4.70;;
39222;SDS011;24936;46.328;11.026;2023-12-29T11:12:07;11.45;;;6.85;;
39222;SDS011;24936;46.328;11.026;2023-12-29T11:14:32;8.25;;;5.60;;
39222;SDS011;24936;46.328;11.026;2023-12-29T11:16:59;11.25;;;6.05;;
39222;SDS011;24936;46.328;11.026;2023-12-29T11:19:25;5.38;;;4.50;;
39222;SDS011;24936;46.328;11.026;2023-12-29T11:21:52;8.35;;;5.32;;
39222;SDS011;24936;46.328;11.026;2023-12-29T11:24:20;6.35;;;5.55;;
39222;SDS011;24936;46.328;11.026;2023-12-29T11:26:46;6.10;;;5.05;;
39222;SDS011;24936;46.328;11.026;2023-12-29T11:29:14;10.43;;;8.00;;
39222;SDS011;24936;46.328;11.026;2023-12-29T11:31:42;9.15;;;6.43;;
39222;SDS011;24936;46.328;11.026;2023-12-29T11:34:14;7.78;;;5.30;;
39222;SDS011;24936;46.328;11.026;2023-12-29T11:36:56;5.70;;;4.93;;
39222;SDS011;24936;46.328;11.026;2023-12-29T11:42:10;4.63;;;4.22;;
39222;SDS011;24936;46.328;11.026;2023-12-29T11:44:42;8.30;;;5.28;;
39222;SDS011;24936;46.328;11.026;2023-12-29T11:50:26;9.52;;;4.20;;
39222;SDS011;24936;46.328;11.026;2023-12-29T11:53:03;6.00;;;4.53;;
39222;SDS011;24936;46.328;11.026;2023-12-29T11:55:38;11.10;;;3.65;;
39222;SDS011;24936;46.328;11.026;2023-12-29T11:58:23;5.55;;;3.38;;
39222;SDS011;24936;46.328;11.026;2023-12-29T12:00:50;4.45;;;3.05;;
39222;SDS011;24936;46.328;11.026;2023-12-29T12:05:51;4.07;;;3.22;;
39222;SDS011;24936;46.328;11.026;2023-12-29T12:19:07;8.93;;;3.70;;
39222;SDS011;24936;46.328;11.026;2023-12-29T12:21:33;8.00;;;4.55;;
39222;SDS011;24936;46.328;11.026;2023-12-29T12:24:01;12.10;;;3.92;;
39222;SDS011;24936;46.328;11.026;2023-12-29T12:26:28;10.35;;;5.13;;
39222;SDS011;24936;46.328;11.026;2023-12-29T12:28:55;5.25;;;3.30;;
39222;SDS011;24936;46.328;11.026;2023-12-29T12:31:22;4.55;;;3.45;;
39222;SDS011;24936;46.328;11.026;2023-12-29T12:33:54;4.35;;;3.95;;
39222;SDS011;24936;46.328;11.026;2023-12-29T12:36:25;11.30;;;4.85;;
39222;SDS011;24936;46.328;11.026;2023-12-29T12:41:21;3.65;;;3.33;;
39222;SDS011;24936;46.328;11.026;2023-12-29T12:46:33;4.82;;;3.70;;
39222;SDS011;24936;46.328;11.026;2023-12-29T12:49:01;4.55;;;4.15;;
39222;SDS011;24936;46.328;11.026;2023-12-29T12:51:28;6.60;;;3.70;;
39222;SDS011;24936;46.328;11.026;2023-12-29T12:53:55;4.20;;;2.58;;
39222;SDS011;24936;46.328;11.026;2023-12-29T12:56:21;7.22;;;3.63;;
39222;SDS011;24936;46.328;11.026;2023-12-29T12:58:46;3.28;;;2.97;;
39222;SDS011;24936;46.328;11.026;2023-12-29T13:01:12;4.32;;;3.88;;
39222;SDS011;24936;46.328;11.026;2023-12-29T13:03:38;6.70;;;3.72;;
39222;SDS011;24936;46.328;11.026;2023-12-29T13:06:04;6.97;;;3.47;;
39222;SDS011;24936;46.328;11.026;2023-12-29T13:08:31;7.63;;;3.97;;
39222;SDS011;24936;46.328;11.026;2023-12-29T13:10:58;4.28;;;3.85;;
39222;SDS011;24936;46.328;11.026;2023-12-29T13:13:34;7.38;;;4.78;;
39222;SDS011;24936;46.328;11.026;2023-12-29T13:16:01;4.43;;;3.42;;
39222;SDS011;24936;46.328;11.026;2023-12-29T13:18:29;6.82;;;4.15;;
39222;SDS011;24936;46.328;11.026;2023-12-29T13:20:58;5.40;;;4.45;;
39222;SDS011;24936;46.328;11.026;2023-12-29T13:23:26;9.02;;;4.68;;
39222;SDS011;24936;46.328;11.026;2023-12-29T13:26:02;9.43;;;4.25;;
39222;SDS011;24936;46.328;11.026;2023-12-29T13:28:32;9.60;;;4.38;;
39222;SDS011;24936;46.328;11.026;2023-12-29T13:30:59;9.70;;;3.78;;
39222;SDS011;24936;46.328;11.026;2023-12-29T13:36:03;5.00;;;4.47;;
39222;SDS011;24936;46.328;11.026;2023-12-29T13:38:53;7.90;;;4.28;;
39222;SDS011;24936;46.328;11.026;2023-12-29T13:41:23;4.70;;;3.50;;
39222;SDS011;24936;46.328;11.026;2023-12-29T13:43:53;5.35;;;3.83;;
39222;SDS011;24936;46.328;11.026;2023-12-29T13:46:19;17.13;;;4.32;;
39222;SDS011;24936;46.328;11.026;2023-12-29T13:48:45;7.82;;;4.63;;
39222;SDS011;24936;46.328;11.026;2023-12-29T13:51:16;16.90;;;8.10;;
39222;SDS011;24936;46.328;11.026;2023-12-29T13:53:41;6.65;;;4.18;;
39222;SDS011;24936;46.328;11.026;2023-12-29T13:56:07;4.35;;;3.63;;
39222;SDS011;24936;46.328;11.026;2023-12-29T13:58:33;12.43;;;5.70;;
39222;SDS011;24936;46.328;11.026;2023-12-29T14:00:59;18.48;;;6.15;;
39222;SDS011;24936;46.328;11.026;2023-12-29T14:03:34;9.32;;;5.65;;
39222;SDS011;24936;46.328;11.026;2023-12-29T14:08:44;7.43;;;4.22;;
39222;SDS011;24936;46.328;11.026;2023-12-29T14:11:11;5.72;;;4.43;;
39222;SDS011;24936;46.328;11.026;2023-12-29T14:13:43;6.93;;;5.50;;
39222;SDS011;24936;46.328;11.026;2023-12-29T14:16:14;5.70;;;4.50;;
39222;SDS011;24936;46.328;11.026;2023-12-29T14:21:21;6.22;;;5.18;;
39222;SDS011;24936;46.328;11.026;2023-12-29T14:24:01;6.50;;;5.47;;
39222;SDS011;24936;46.328;11.026;2023-12-29T14:26:28;7.53;;;5.35;;
39222;SDS011;24936;46.328;11.026;2023-12-29T14:29:05;8.18;;;5.03;;
39222;SDS011;24936;46.328;11.026;2023-12-29T14:31:34;13.27;;;6.05;;
39222;SDS011;24936;46.328;11.026;2023-12-29T14:34:02;6.03;;;5.00;;
39222;SDS011;24936;46.328;11.026;2023-12-29T14:36:29;5.60;;;4.70;;
39222;SDS011;24936;46.328;11.026;2023-12-29T14:38:55;6.95;;;5.50;;
39222;SDS011;24936;46.328;11.026;2023-12-29T14:41:20;6.88;;;4.95;;
39222;SDS011;24936;46.328;11.026;2023-12-29T14:43:46;7.82;;;5.45;;
39222;SDS011;24936;46.328;11.026;2023-12-29T14:46:11;8.52;;;5.97;;
39222;SDS011;24936;46.328;11.026;2023-12-29T14:48:37;8.88;;;4.55;;
39222;SDS011;24936;46.328;11.026;2023-12-29T14:51:04;8.52;;;5.90;;
39222;SDS011;24936;46.328;11.026;2023-12-29T14:53:30;10.55;;;4.65;;
39222;SDS011;24936;46.328;11.026;2023-12-29T14:55:55;9.07;;;5.05;;
39222;SDS011;24936;46.328;11.026;2023-12-29T14:58:20;15.30;;;4.35;;
39222;SDS011;24936;46.328;11.026;2023-12-29T15:00:46;4.63;;;4.18;;
39222;SDS011;24936;46.328;11.026;2023-12-29T15:03:12;6.40;;;4.50;;
39222;SDS011;24936;46.328;11.026;2023-12-29T15:05:40;4.28;;;3.45;;
39222;SDS011;24936;46.328;11.026;2023-12-29T15:08:06;10.60;;;4.28;;
39222;SDS011;24936;46.328;11.026;2023-12-29T15:10:32;6.38;;;3.97;;
39222;SDS011;24936;46.328;11.026;2023-12-29T15:12:58;6.20;;;4.38;;